Terminal Aerodrome Forecast
Issued by NWS

Home | Current Version | Previous Version | Text Only | Print | Product List | Glossary On
Versions: 1 2 3 4 5 6 7 8 9 10 11 12 13 14 15 16 17 18 19 20 21 22 23 24 25 26 27 28
124
FTUS41 KCAR 271127
TAFPQI
TAF
KPQI 271127Z 2712/2812 21009KT P6SM BKN040
     FM271500 22011G22KT P6SM -SHSN BKN040
     FM271900 26015G26KT P6SM BKN040
     FM280100 31007KT 6SM -SHSN BKN025=

USA.gov is the U.S. government's official web portal to all federal, state and local government web resources and services.